sensor_id;sensor_type;location;lat;lon;timestamp;pressure;altitude;pressure_sealevel;temperature;humidity
27729;BME280;15126;42.186;24.340;2022-12-07T00:01:21;99497.25;;;6.77;92.86
27729;BME280;15126;42.186;24.340;2022-12-07T00:03:51;99487.75;;;6.78;92.96
27729;BME280;15126;42.186;24.340;2022-12-07T00:06:19;99502.78;;;6.80;93.13
27729;BME280;15126;42.186;24.340;2022-12-07T00:08:46;99507.94;;;6.78;93.37
27729;BME280;15126;42.186;24.340;2022-12-07T00:11:15;99500.00;;;6.77;93.51
27729;BME280;15126;42.186;24.340;2022-12-07T00:13:43;99501.22;;;6.72;93.66
27729;BME280;15126;42.186;24.340;2022-12-07T00:16:12;99498.84;;;6.74;93.52
27729;BME280;15126;42.186;24.340;2022-12-07T00:18:39;99489.38;;;6.61;93.57
27729;BME280;15126;42.186;24.340;2022-12-07T00:21:10;99498.06;;;6.74;93.12
27729;BME280;15126;42.186;24.340;2022-12-07T00:23:37;99498.84;;;6.78;92.50
27729;BME280;15126;42.186;24.340;2022-12-07T00:26:05;99496.47;;;6.73;92.13
27729;BME280;15126;42.186;24.340;2022-12-07T00:28:33;99504.38;;;6.78;92.05
27729;BME280;15126;42.186;24.340;2022-12-07T00:31:02;99507.94;;;6.78;91.69
27729;BME280;15126;42.186;24.340;2022-12-07T00:33:29;99505.16;;;6.78;91.19
27729;BME280;15126;42.186;24.340;2022-12-07T00:35:56;99507.16;;;6.78;91.08
27729;BME280;15126;42.186;24.340;2022-12-07T00:38:26;99506.75;;;6.72;91.08
27729;BME280;15126;42.186;24.340;2022-12-07T00:40:55;99511.50;;;6.72;91.36
27729;BME280;15126;42.186;24.340;2022-12-07T00:43:22;99494.50;;;6.66;91.27
27729;BME280;15126;42.186;24.340;2022-12-07T00:45:49;99483.03;;;6.64;91.09
27729;BME280;15126;42.186;24.340;2022-12-07T00:48:16;99497.69;;;6.65;90.91
27729;BME280;15126;42.186;24.340;2022-12-07T00:50:43;99488.19;;;6.62;90.33
27729;BME280;15126;42.186;24.340;2022-12-07T00:53:09;99484.63;;;6.58;90.82
27729;BME280;15126;42.186;24.340;2022-12-07T00:55:38;99492.97;;;6.54;90.34
27729;BME280;15126;42.186;24.340;2022-12-07T00:58:05;99491.00;;;6.48;90.34
27729;BME280;15126;42.186;24.340;2022-12-07T01:00:32;99489.41;;;6.47;90.60
27729;BME280;15126;42.186;24.340;2022-12-07T01:03:00;99488.63;;;6.46;90.50
27729;BME280;15126;42.186;24.340;2022-12-07T01:05:26;99482.28;;;6.42;90.49
27729;BME280;15126;42.186;24.340;2022-12-07T01:07:53;99478.34;;;6.40;90.48
27729;BME280;15126;42.186;24.340;2022-12-07T01:10:20;99476.38;;;6.37;90.25
27729;BME280;15126;42.186;24.340;2022-12-07T01:12:48;99454.22;;;6.23;90.38
27729;BME280;15126;42.186;24.340;2022-12-07T01:15:15;99468.47;;;6.28;90.68
27729;BME280;15126;42.186;24.340;2022-12-07T01:17:42;99466.47;;;6.25;90.31
27729;BME280;15126;42.186;24.340;2022-12-07T01:20:10;99466.50;;;6.22;90.60
27729;BME280;15126;42.186;24.340;2022-12-07T01:22:37;99445.97;;;6.09;90.33
27729;BME280;15126;42.186;24.340;2022-12-07T01:25:04;99456.22;;;6.12;90.46
27729;BME280;15126;42.186;24.340;2022-12-07T01:27:32;99453.06;;;6.10;90.21
27729;BME280;15126;42.186;24.340;2022-12-07T01:30:01;99455.84;;;6.06;90.63
27729;BME280;15126;42.186;24.340;2022-12-07T01:32:28;99448.34;;;5.99;90.45
27729;BME280;15126;42.186;24.340;2022-12-07T01:34:55;99445.19;;;5.97;91.03
27729;BME280;15126;42.186;24.340;2022-12-07T01:37:22;99450.72;;;5.97;90.41
27729;BME280;15126;42.186;24.340;2022-12-07T01:39:50;99433.31;;;5.93;90.76
27729;BME280;15126;42.186;24.340;2022-12-07T01:42:18;99439.63;;;5.90;90.69
27729;BME280;15126;42.186;24.340;2022-12-07T01:48:04;99441.19;;;5.84;90.75
27729;BME280;15126;42.186;24.340;2022-12-07T01:50:32;99442.38;;;5.83;90.77
27729;BME280;15126;42.186;24.340;2022-12-07T01:53:02;99457.78;;;5.84;91.28
27729;BME280;15126;42.186;24.340;2022-12-07T01:55:30;99446.72;;;5.84;90.98
27729;BME280;15126;42.186;24.340;2022-12-07T01:57:57;99440.00;;;5.82;91.36
27729;BME280;15126;42.186;24.340;2022-12-07T02:00:24;99423.81;;;5.70;91.94
27729;BME280;15126;42.186;24.340;2022-12-07T02:02:55;99437.25;;;5.78;91.70
27729;BME280;15126;42.186;24.340;2022-12-07T02:05:25;99431.72;;;5.78;91.73
27729;BME280;15126;42.186;24.340;2022-12-07T02:07:55;99439.59;;;5.76;91.25
27729;BME280;15126;42.186;24.340;2022-12-07T02:10:24;99425.00;;;5.76;91.64
27729;BME280;15126;42.186;24.340;2022-12-07T02:12:54;99425.00;;;5.76;91.09
27729;BME280;15126;42.186;24.340;2022-12-07T02:15:27;99425.78;;;5.73;91.45
27729;BME280;15126;42.186;24.340;2022-12-07T02:17:59;99425.00;;;5.72;90.96
27729;BME280;15126;42.186;24.340;2022-12-07T02:20:33;99413.91;;;5.69;91.67
27729;BME280;15126;42.186;24.340;2022-12-07T02:23:38;99415.88;;;5.68;91.23
27729;BME280;15126;42.186;24.340;2022-12-07T02:26:29;99417.88;;;5.64;91.68
27729;BME280;15126;42.186;24.340;2022-12-07T02:29:12;99414.72;;;5.62;91.17
27729;BME280;15126;42.186;24.340;2022-12-07T02:31:44;99408.78;;;5.60;91.05
27729;BME280;15126;42.186;24.340;2022-12-07T02:34:19;99408.00;;;5.60;91.42
27729;BME280;15126;42.186;24.340;2022-12-07T02:36:54;99412.75;;;5.59;91.47
27729;BME280;15126;42.186;24.340;2022-12-07T02:39:28;99415.50;;;5.59;91.31
27729;BME280;15126;42.186;24.340;2022-12-07T02:42:00;99410.38;;;5.54;91.16
27729;BME280;15126;42.186;24.340;2022-12-07T02:44:30;99401.66;;;5.52;91.72
27729;BME280;15126;42.186;24.340;2022-12-07T02:47:01;99408.78;;;5.53;91.67
27729;BME280;15126;42.186;24.340;2022-12-07T02:49:30;99412.72;;;5.52;91.55
27729;BME280;15126;42.186;24.340;2022-12-07T02:51:58;99414.31;;;5.53;91.61
27729;BME280;15126;42.186;24.340;2022-12-07T02:54:24;99410.75;;;5.53;91.86
27729;BME280;15126;42.186;24.340;2022-12-07T02:56:55;99408.78;;;5.50;91.36
27729;BME280;15126;42.186;24.340;2022-12-07T02:59:38;99405.59;;;5.44;92.02
27729;BME280;15126;42.186;24.340;2022-12-07T03:02:17;99415.09;;;5.50;91.70
27729;BME280;15126;42.186;24.340;2022-12-07T03:04:55;99408.41;;;5.51;91.99
27729;BME280;15126;42.186;24.340;2022-12-07T03:07:32;99407.97;;;5.49;92.06
27729;BME280;15126;42.186;24.340;2022-12-07T03:10:07;99401.69;;;5.49;92.36
27729;BME280;15126;42.186;24.340;2022-12-07T03:12:42;99398.91;;;5.49;91.86
27729;BME280;15126;42.186;24.340;2022-12-07T03:15:16;99400.09;;;5.48;91.91
27729;BME280;15126;42.186;24.340;2022-12-07T03:17:45;99400.88;;;5.48;91.81
27729;BME280;15126;42.186;24.340;2022-12-07T03:20:16;99392.19;;;5.46;92.29
27729;BME280;15126;42.186;24.340;2022-12-07T03:22:45;99394.97;;;5.46;92.41
27729;BME280;15126;42.186;24.340;2022-12-07T03:25:15;99394.53;;;5.44;92.68
27729;BME280;15126;42.186;24.340;2022-12-07T03:27:46;99389.00;;;5.44;92.25
27729;BME280;15126;42.186;24.340;2022-12-07T03:30:18;99406.41;;;5.41;92.74
27729;BME280;15126;42.186;24.340;2022-12-07T03:32:49;99409.19;;;5.37;92.78
27729;BME280;15126;42.186;24.340;2022-12-07T03:35:22;99406.75;;;5.15;95.64
27729;BME280;15126;42.186;24.340;2022-12-07T03:37:55;99396.88;;;5.10;95.23
27729;BME280;15126;42.186;24.340;2022-12-07T03:40:26;99402.81;;;5.23;94.96
27729;BME280;15126;42.186;24.340;2022-12-07T03:42:55;99405.97;;;5.25;94.59
27729;BME280;15126;42.186;24.340;2022-12-07T03:45:32;99403.63;;;5.27;93.79
27729;BME280;15126;42.186;24.340;2022-12-07T03:48:07;99394.91;;;5.25;94.05
27729;BME280;15126;42.186;24.340;2022-12-07T03:50:41;99392.16;;;5.25;93.53
27729;BME280;15126;42.186;24.340;2022-12-07T03:53:14;99397.31;;;5.26;93.65
27729;BME280;15126;42.186;24.340;2022-12-07T03:55:44;99396.50;;;5.26;92.87
27729;BME280;15126;42.186;24.340;2022-12-07T03:58:15;99384.25;;;5.20;93.65
27729;BME280;15126;42.186;24.340;2022-12-07T04:00:45;99385.84;;;5.21;93.60
27729;BME280;15126;42.186;24.340;2022-12-07T04:03:12;99392.16;;;5.25;92.60
27729;BME280;15126;42.186;24.340;2022-12-07T04:05:39;99389.00;;;5.23;92.70
27729;BME280;15126;42.186;24.340;2022-12-07T04:08:06;99378.75;;;5.16;92.64
27729;BME280;15126;42.186;24.340;2022-12-07T04:10:33;99383.47;;;5.19;92.75
27729;BME280;15126;42.186;24.340;2022-12-07T04:13:00;99390.59;;;5.24;93.13
27729;BME280;15126;42.186;24.340;2022-12-07T04:15:27;99379.53;;;5.20;92.50
27729;BME280;15126;42.186;24.340;2022-12-07T04:17:55;99377.16;;;5.22;92.94
27729;BME280;15126;42.186;24.340;2022-12-07T04:20:22;99377.16;;;5.22;92.87
27729;BME280;15126;42.186;24.340;2022-12-07T04:22:49;99367.69;;;5.20;92.85
27729;BME280;15126;42.186;24.340;2022-12-07T04:25:16;99378.75;;;5.23;92.22
27729;BME280;15126;42.186;24.340;2022-12-07T04:27:43;99372.41;;;5.23;92.54
27729;BME280;15126;42.186;24.340;2022-12-07T04:30:10;99375.97;;;5.20;92.47
27729;BME280;15126;42.186;24.340;2022-12-07T04:32:37;99376.75;;;5.17;92.62
27729;BME280;15126;42.186;24.340;2022-12-07T04:35:06;99366.09;;;5.12;92.56
27729;BME280;15126;42.186;24.340;2022-12-07T04:37:33;99368.88;;;5.15;92.41
27729;BME280;15126;42.186;24.340;2022-12-07T04:40:00;99365.31;;;5.15;92.21
27729;BME280;15126;42.186;24.340;2022-12-07T04:42:27;99372.41;;;5.12;92.25
27729;BME280;15126;42.186;24.340;2022-12-07T04:44:54;99367.69;;;5.13;92.49
27729;BME280;15126;42.186;24.340;2022-12-07T04:47:21;99365.69;;;5.10;92.45
27729;BME280;15126;42.186;24.340;2022-12-07T04:49:47;99372.81;;;5.11;92.41
27729;BME280;15126;42.186;24.340;2022-12-07T04:52:16;99372.00;;;5.10;92.00
27729;BME280;15126;42.186;24.340;2022-12-07T04:54:43;99379.09;;;5.04;92.70
27729;BME280;15126;42.186;24.340;2022-12-07T04:57:10;99378.69;;;5.06;92.54
27729;BME280;15126;42.186;24.340;2022-12-07T04:59:36;99383.47;;;5.05;92.11
27729;BME280;15126;42.186;24.340;2022-12-07T05:02:03;99382.66;;;5.05;92.05
27729;BME280;15126;42.186;24.340;2022-12-07T05:04:30;99386.19;;;4.95;92.75
27729;BME280;15126;42.186;24.340;2022-12-07T05:06:57;99391.72;;;4.98;92.74
27729;BME280;15126;42.186;24.340;2022-12-07T05:09:25;99383.81;;;5.00;92.67
27729;BME280;15126;42.186;24.340;2022-12-07T05:11:51;99388.97;;;4.98;92.50
27729;BME280;15126;42.186;24.340;2022-12-07T05:14:20;99402.38;;;4.96;93.01
27729;BME280;15126;42.186;24.340;2022-12-07T05:16:48;99395.69;;;4.97;92.99
27729;BME280;15126;42.186;24.340;2022-12-07T05:19:17;99377.88;;;4.88;93.24
27729;BME280;15126;42.186;24.340;2022-12-07T05:21:44;99390.94;;;4.94;93.42
27729;BME280;15126;42.186;24.340;2022-12-07T05:24:13;99392.13;;;4.97;93.01
27729;BME280;15126;42.186;24.340;2022-12-07T05:26:41;99390.53;;;4.96;93.31
27729;BME280;15126;42.186;24.340;2022-12-07T05:29:11;99392.50;;;4.99;93.21
27729;BME280;15126;42.186;24.340;2022-12-07T05:31:38;99388.94;;;4.88;94.11
27729;BME280;15126;42.186;24.340;2022-12-07T05:34:05;99395.22;;;4.74;95.09
27729;BME280;15126;42.186;24.340;2022-12-07T05:36:31;99363.53;;;4.47;97.01
27729;BME280;15126;42.186;24.340;2022-12-07T05:38:59;99395.97;;;4.67;96.45
27729;BME280;15126;42.186;24.340;2022-12-07T05:41:26;99394.25;;;4.38;98.44
27729;BME280;15126;42.186;24.340;2022-12-07T05:44:12;99405.34;;;4.42;99.00
27729;BME280;15126;42.186;24.340;2022-12-07T05:46:39;99408.47;;;4.37;99.31
27729;BME280;15126;42.186;24.340;2022-12-07T05:49:06;99409.97;;;4.27;99.09
27729;BME280;15126;42.186;24.340;2022-12-07T05:51:32;99410.69;;;4.13;100.00
27729;BME280;15126;42.186;24.340;2022-12-07T05:53:59;99419.41;;;4.15;100.00
27729;BME280;15126;42.186;24.340;2022-12-07T05:56:26;99417.03;;;4.17;99.76
27729;BME280;15126;42.186;24.340;2022-12-07T05:58:53;99424.53;;;4.17;100.00
27729;BME280;15126;42.186;24.340;2022-12-07T06:01:38;99421.84;;;4.31;99.91
27729;BME280;15126;42.186;24.340;2022-12-07T06:04:05;99410.81;;;4.31;99.82
27729;BME280;15126;42.186;24.340;2022-12-07T06:06:32;99410.06;;;4.41;99.70
27729;BME280;15126;42.186;24.340;2022-12-07T06:08:59;99407.75;;;4.57;98.60
27729;BME280;15126;42.186;24.340;2022-12-07T06:11:25;99403.88;;;4.69;98.54
27729;BME280;15126;42.186;24.340;2022-12-07T06:14:10;99394.41;;;4.73;98.10
27729;BME280;15126;42.186;24.340;2022-12-07T06:16:36;99399.16;;;4.69;97.99
27729;BME280;15126;42.186;24.340;2022-12-07T06:19:05;99371.91;;;4.64;97.89
27729;BME280;15126;42.186;24.340;2022-12-07T06:21:31;99403.56;;;4.92;97.47
27729;BME280;15126;42.186;24.340;2022-12-07T06:23:58;99396.09;;;5.03;97.08
27729;BME280;15126;42.186;24.340;2022-12-07T06:26:25;99396.09;;;5.10;96.53
27729;BME280;15126;42.186;24.340;2022-12-07T06:28:52;99401.22;;;5.15;96.26
27729;BME280;15126;42.186;24.340;2022-12-07T06:31:18;99402.81;;;5.16;96.66
27729;BME280;15126;42.186;24.340;2022-12-07T06:33:45;99393.75;;;5.26;95.96
27729;BME280;15126;42.186;24.340;2022-12-07T06:36:13;99389.81;;;5.34;95.77
27729;BME280;15126;42.186;24.340;2022-12-07T06:38:40;99400.88;;;5.41;96.38
27729;BME280;15126;42.186;24.340;2022-12-07T06:41:07;99403.25;;;5.50;95.90
27729;BME280;15126;42.186;24.340;2022-12-07T06:43:34;99387.44;;;5.47;96.72
27729;BME280;15126;42.186;24.340;2022-12-07T06:46:01;99399.69;;;5.63;96.97
27729;BME280;15126;42.186;24.340;2022-12-07T06:48:27;99404.84;;;5.75;96.60
27729;BME280;15126;42.186;24.340;2022-12-07T06:50:54;99414.72;;;5.90;96.60
27729;BME280;15126;42.186;24.340;2022-12-07T06:53:23;99408.41;;;6.01;96.59
27729;BME280;15126;42.186;24.340;2022-12-07T06:55:49;99414.31;;;6.17;96.72
27729;BME280;15126;42.186;24.340;2022-12-07T06:58:17;99409.50;;;6.28;94.72
27729;BME280;15126;42.186;24.340;2022-12-07T07:00:44;99404.75;;;6.39;93.99
27729;BME280;15126;42.186;24.340;2022-12-07T07:03:11;99409.06;;;6.50;93.55
27729;BME280;15126;42.186;24.340;2022-12-07T07:05:38;99400.38;;;6.52;93.28
27729;BME280;15126;42.186;24.340;2022-12-07T07:08:05;99400.69;;;6.65;93.00
27729;BME280;15126;42.186;24.340;2022-12-07T07:10:33;99410.16;;;6.74;91.57
27729;BME280;15126;42.186;24.340;2022-12-07T07:13:00;99403.81;;;6.81;91.46
27729;BME280;15126;42.186;24.340;2022-12-07T07:15:27;99405.34;;;6.85;91.29
27729;BME280;15126;42.186;24.340;2022-12-07T07:17:54;99402.94;;;6.94;90.89
27729;BME280;15126;42.186;24.340;2022-12-07T07:20:21;99401.72;;;7.02;91.03
27729;BME280;15126;42.186;24.340;2022-12-07T07:22:48;99404.03;;;7.11;90.29
27729;BME280;15126;42.186;24.340;2022-12-07T07:25:15;99410.38;;;7.11;90.71
27729;BME280;15126;42.186;24.340;2022-12-07T07:27:43;99411.09;;;7.23;90.49
27729;BME280;15126;42.186;24.340;2022-12-07T07:30:10;99413.44;;;7.28;90.16
27729;BME280;15126;42.186;24.340;2022-12-07T07:32:37;99410.63;;;7.35;90.16
27729;BME280;15126;42.186;24.340;2022-12-07T07:35:04;99416.88;;;7.46;89.13
27729;BME280;15126;42.186;24.340;2022-12-07T07:37:31;99421.91;;;7.61;89.53
27729;BME280;15126;42.186;24.340;2022-12-07T07:39:58;99413.50;;;7.72;89.19
27729;BME280;15126;42.186;24.340;2022-12-07T07:42:25;99428.84;;;7.87;89.15
27729;BME280;15126;42.186;24.340;2022-12-07T07:44:53;99423.66;;;7.93;88.93
27729;BME280;15126;42.186;24.340;2022-12-07T07:47:19;99424.78;;;7.99;88.88
27729;BME280;15126;42.186;24.340;2022-12-07T07:49:46;99424.22;;;8.18;88.06
27729;BME280;15126;42.186;24.340;2022-12-07T07:52:13;99421.56;;;8.04;86.26
27729;BME280;15126;42.186;24.340;2022-12-07T07:54:40;99423.44;;;8.17;85.80
27729;BME280;15126;42.186;24.340;2022-12-07T07:57:06;99428.16;;;8.20;86.20
27729;BME280;15126;42.186;24.340;2022-12-07T07:59:33;99427.28;;;8.30;86.32
27729;BME280;15126;42.186;24.340;2022-12-07T08:02:01;99429.53;;;8.43;85.79
27729;BME280;15126;42.186;24.340;2022-12-07T08:04:28;99421.94;;;8.47;84.93
27729;BME280;15126;42.186;24.340;2022-12-07T08:06:56;99418.34;;;8.50;85.56
27729;BME280;15126;42.186;24.340;2022-12-07T08:09:23;99414.44;;;8.44;87.24
27729;BME280;15126;42.186;24.340;2022-12-07T08:11:50;99420.00;;;8.44;87.11
27729;BME280;15126;42.186;24.340;2022-12-07T08:14:16;99424.09;;;8.69;86.40
27729;BME280;15126;42.186;24.340;2022-12-07T08:16:43;99430.69;;;8.82;86.20
27729;BME280;15126;42.186;24.340;2022-12-07T08:19:11;99421.38;;;8.96;86.16
27729;BME280;15126;42.186;24.340;2022-12-07T08:21:38;99420.78;;;9.08;86.22
27729;BME280;15126;42.186;24.340;2022-12-07T08:24:05;99422.19;;;9.23;85.93
27729;BME280;15126;42.186;24.340;2022-12-07T08:26:32;99419.66;;;9.32;85.24
27729;BME280;15126;42.186;24.340;2022-12-07T08:28:59;99421.88;;;9.44;84.20
27729;BME280;15126;42.186;24.340;2022-12-07T08:31:26;99416.94;;;9.55;83.72
27729;BME280;15126;42.186;24.340;2022-12-07T08:33:53;99415.84;;;9.49;84.34
27729;BME280;15126;42.186;24.340;2022-12-07T08:36:23;99421.44;;;9.46;84.49
27729;BME280;15126;42.186;24.340;2022-12-07T08:38:50;99414.16;;;9.55;83.52
27729;BME280;15126;42.186;24.340;2022-12-07T08:41:17;99401.91;;;9.49;83.15
27729;BME280;15126;42.186;24.340;2022-12-07T08:43:43;99402.53;;;9.61;82.43
27729;BME280;15126;42.186;24.340;2022-12-07T08:46:13;99403.63;;;9.67;82.49
27729;BME280;15126;42.186;24.340;2022-12-07T08:48:45;99403.94;;;9.72;82.73
27729;BME280;15126;42.186;24.340;2022-12-07T08:51:13;99397.31;;;9.63;82.17
27729;BME280;15126;42.186;24.340;2022-12-07T08:53:42;99404.44;;;9.67;83.43
27729;BME280;15126;42.186;24.340;2022-12-07T08:56:10;99399.88;;;9.77;82.76
27729;BME280;15126;42.186;24.340;2022-12-07T08:58:37;99394.63;;;9.82;82.46
27729;BME280;15126;42.186;24.340;2022-12-07T09:01:05;99392.09;;;9.91;82.25
27729;BME280;15126;42.186;24.340;2022-12-07T09:03:32;99390.81;;;9.96;82.46
27729;BME280;15126;42.186;24.340;2022-12-07T09:05:59;99388.69;;;10.03;83.06
27729;BME280;15126;42.186;24.340;2022-12-07T09:08:32;99380.09;;;10.18;82.17
27729;BME280;15126;42.186;24.340;2022-12-07T09:11:01;99381.03;;;10.31;81.27
27729;BME280;15126;42.186;24.340;2022-12-07T09:13:28;99375.72;;;10.16;81.44
27729;BME280;15126;42.186;24.340;2022-12-07T09:15:56;99374.66;;;10.30;80.53
27729;BME280;15126;42.186;24.340;2022-12-07T09:18:23;99373.19;;;10.45;80.47
27729;BME280;15126;42.186;24.340;2022-12-07T09:20:50;99353.47;;;10.56;79.57
27729;BME280;15126;42.186;24.340;2022-12-07T09:23:17;99347.09;;;10.55;79.59
27729;BME280;15126;42.186;24.340;2022-12-07T09:25:44;99349.47;;;10.57;79.30
27729;BME280;15126;42.186;24.340;2022-12-07T09:28:12;99348.72;;;10.72;79.01
27729;BME280;15126;42.186;24.340;2022-12-07T09:30:39;99324.22;;;10.64;78.66
27729;BME280;15126;42.186;24.340;2022-12-07T09:33:11;99338.47;;;10.86;80.79
27729;BME280;15126;42.186;24.340;2022-12-07T09:35:38;99333.38;;;11.00;78.51
27729;BME280;15126;42.186;24.340;2022-12-07T09:38:04;99343.41;;;10.98;79.02
27729;BME280;15126;42.186;24.340;2022-12-07T09:40:33;99348.03;;;11.04;77.99
27729;BME280;15126;42.186;24.340;2022-12-07T09:43:00;99332.69;;;11.12;76.87
27729;BME280;15126;42.186;24.340;2022-12-07T09:45:32;99328.69;;;11.13;77.11
27729;BME280;15126;42.186;24.340;2022-12-07T09:48:00;99335.34;;;11.19;76.53
27729;BME280;15126;42.186;24.340;2022-12-07T09:50:29;99321.09;;;11.14;76.27
27729;BME280;15126;42.186;24.340;2022-12-07T09:53:07;99310.03;;;11.10;76.08
27729;BME280;15126;42.186;24.340;2022-12-07T09:55:36;99287.75;;;10.91;75.56
27729;BME280;15126;42.186;24.340;2022-12-07T09:58:03;99301.03;;;11.03;75.44
27729;BME280;15126;42.186;24.340;2022-12-07T10:00:31;99308.81;;;11.11;75.35
27729;BME280;15126;42.186;24.340;2022-12-07T10:03:00;99311.34;;;11.06;75.89
27729;BME280;15126;42.186;24.340;2022-12-07T10:05:29;99293.16;;;10.82;75.49
27729;BME280;15126;42.186;24.340;2022-12-07T10:07:57;99309.13;;;10.97;78.24
27729;BME280;15126;42.186;24.340;2022-12-07T10:10:26;99311.41;;;11.02;77.00
27729;BME280;15126;42.186;24.340;2022-12-07T10:13:00;99315.31;;;11.05;76.51
27729;BME280;15126;42.186;24.340;2022-12-07T10:15:46;99309.56;;;11.12;77.29
27729;BME280;15126;42.186;24.340;2022-12-07T10:18:30;99310.91;;;11.23;76.29
27729;BME280;15126;42.186;24.340;2022-12-07T10:21:14;99306.63;;;11.35;75.06
27729;BME280;15126;42.186;24.340;2022-12-07T10:23:59;99295.81;;;11.53;74.66
27729;BME280;15126;42.186;24.340;2022-12-07T10:26:30;99289.00;;;11.70;73.95
27729;BME280;15126;42.186;24.340;2022-12-07T10:29:00;99295.91;;;11.82;73.96
27729;BME280;15126;42.186;24.340;2022-12-07T10:31:29;99286.72;;;11.81;72.23
27729;BME280;15126;42.186;24.340;2022-12-07T10:33:58;99271.38;;;11.73;72.00
27729;BME280;15126;42.186;24.340;2022-12-07T10:36:27;99289.31;;;11.88;72.18
27729;BME280;15126;42.186;24.340;2022-12-07T10:38:59;99279.13;;;11.82;73.55
27729;BME280;15126;42.186;24.340;2022-12-07T10:41:27;99277.81;;;11.86;73.75
27729;BME280;15126;42.186;24.340;2022-12-07T10:43:55;99299.81;;;11.84;74.73
27729;BME280;15126;42.186;24.340;2022-12-07T10:52:45;99288.59;;;12.01;73.80
27729;BME280;15126;42.186;24.340;2022-12-07T10:55:21;99295.03;;;12.14;74.88
27729;BME280;15126;42.186;24.340;2022-12-07T10:58:14;99279.94;;;12.24;73.69
27729;BME280;15126;42.186;24.340;2022-12-07T11:00:50;99277.53;;;12.38;71.85
27729;BME280;15126;42.186;24.340;2022-12-07T11:06:25;99276.28;;;12.27;72.38
27729;BME280;15126;42.186;24.340;2022-12-07T11:09:03;99270.00;;;11.94;71.94
27729;BME280;15126;42.186;24.340;2022-12-07T11:11:34;99268.38;;;11.80;72.18
27729;BME280;15126;42.186;24.340;2022-12-07T11:14:12;99262.47;;;11.78;74.22
27729;BME280;15126;42.186;24.340;2022-12-07T11:16:52;99242.19;;;11.74;73.82
27729;BME280;15126;42.186;24.340;2022-12-07T11:19:39;99255.75;;;11.60;72.55
27729;BME280;15126;42.186;24.340;2022-12-07T11:22:16;99251.28;;;11.62;72.80
27729;BME280;15126;42.186;24.340;2022-12-07T11:24:50;99244.81;;;11.65;73.13
27729;BME280;15126;42.186;24.340;2022-12-07T11:27:24;99228.69;;;11.73;73.10
27729;BME280;15126;42.186;24.340;2022-12-07T11:30:12;99228.53;;;11.92;71.70
27729;BME280;15126;42.186;24.340;2022-12-07T11:33:03;99228.97;;;12.20;70.86
27729;BME280;15126;42.186;24.340;2022-12-07T11:35:48;99227.88;;;12.42;72.11
27729;BME280;15126;42.186;24.340;2022-12-07T11:38:22;99215.91;;;12.67;71.27
27729;BME280;15126;42.186;24.340;2022-12-07T11:40:51;99205.19;;;12.78;69.97
27729;BME280;15126;42.186;24.340;2022-12-07T11:43:24;99202.38;;;12.91;70.23
27729;BME280;15126;42.186;24.340;2022-12-07T11:45:57;99210.09;;;12.99;68.26
27729;BME280;15126;42.186;24.340;2022-12-07T11:48:33;99211.25;;;12.77;69.78
27729;BME280;15126;42.186;24.340;2022-12-07T11:51:02;99201.56;;;12.27;69.73
27729;BME280;15126;42.186;24.340;2022-12-07T11:53:34;99189.13;;;12.16;70.36
27729;BME280;15126;42.186;24.340;2022-12-07T11:56:07;99204.47;;;12.24;70.72
27729;BME280;15126;42.186;24.340;2022-12-07T11:58:42;99212.41;;;12.25;70.70
27729;BME280;15126;42.186;24.340;2022-12-07T12:01:18;99205.34;;;12.21;70.77
27729;BME280;15126;42.186;24.340;2022-12-07T12:03:52;99203.09;;;12.03;72.55
27729;BME280;15126;42.186;24.340;2022-12-07T12:06:20;99207.66;;;12.10;71.71
27729;BME280;15126;42.186;24.340;2022-12-07T12:08:55;99182.63;;;12.06;71.53
27729;BME280;15126;42.186;24.340;2022-12-07T12:11:36;99189.47;;;12.18;71.51
27729;BME280;15126;42.186;24.340;2022-12-07T12:14:19;99191.03;;;12.19;71.64
27729;BME280;15126;42.186;24.340;2022-12-07T12:17:20;99184.63;;;12.06;72.00
27729;BME280;15126;42.186;24.340;2022-12-07T12:20:00;99183.19;;;12.01;72.10
27729;BME280;15126;42.186;24.340;2022-12-07T12:22:34;99177.13;;;12.03;71.39
27729;BME280;15126;42.186;24.340;2022-12-07T12:25:17;99172.00;;;12.01;71.73
27729;BME280;15126;42.186;24.340;2022-12-07T12:27:47;99163.91;;;11.90;72.03
27729;BME280;15126;42.186;24.340;2022-12-07T12:30:30;99162.59;;;11.95;71.78
27729;BME280;15126;42.186;24.340;2022-12-07T12:33:05;99162.13;;;11.97;72.25
27729;BME280;15126;42.186;24.340;2022-12-07T12:35:39;99159.41;;;11.80;71.97
27729;BME280;15126;42.186;24.340;2022-12-07T12:38:28;99165.69;;;11.84;71.73
27729;BME280;15126;42.186;24.340;2022-12-07T12:40:57;99167.25;;;11.85;71.75
27729;BME280;15126;42.186;24.340;2022-12-07T12:43:43;99166.66;;;11.78;72.73
27729;BME280;15126;42.186;24.340;2022-12-07T12:46:37;99168.53;;;11.68;72.77
27729;BME280;15126;42.186;24.340;2022-12-07T12:49:33;99168.44;;;11.72;72.67
27729;BME280;15126;42.186;24.340;2022-12-07T12:52:01;99162.84;;;11.72;73.24
27729;BME280;15126;42.186;24.340;2022-12-07T12:54:59;99158.22;;;11.65;73.64
27729;BME280;15126;42.186;24.340;2022-12-07T12:57:29;99160.94;;;11.69;73.85
27729;BME280;15126;42.186;24.340;2022-12-07T12:59:57;99159.72;;;11.70;73.88
27729;BME280;15126;42.186;24.340;2022-12-07T13:02:26;99167.66;;;11.71;73.33
27729;BME280;15126;42.186;24.340;2022-12-07T13:04:56;99163.22;;;11.74;73.52
27729;BME280;15126;42.186;24.340;2022-12-07T13:07:55;99167.22;;;11.73;72.02
27729;BME280;15126;42.186;24.340;2022-12-07T13:10:34;99165.03;;;11.64;72.83
27729;BME280;15126;42.186;24.340;2022-12-07T13:13:25;99151.16;;;11.61;73.08
27729;BME280;15126;42.186;24.340;2022-12-07T13:15:53;99146.75;;;11.47;72.39
27729;BME280;15126;42.186;24.340;2022-12-07T13:18:24;99161.16;;;11.46;72.99
27729;BME280;15126;42.186;24.340;2022-12-07T13:20:53;99170.75;;;11.45;73.52
27729;BME280;15126;42.186;24.340;2022-12-07T13:23:29;99162.50;;;11.41;73.48
27729;BME280;15126;42.186;24.340;2022-12-07T13:26:13;99160.22;;;11.36;73.73
27729;BME280;15126;42.186;24.340;2022-12-07T13:28:44;99165.47;;;11.34;74.17